Terminal Aerodrome Forecast
Issued by NWS

Home | Current Version | Previous Version | Text Only | Print | Product List | Glossary On
Versions: 1 2 3 4 5 6 7 8 9 10 11 12 13 14
000
FTAK31 PAJN 312321
TAFAYA
TAF
PAYA 312321Z 0100/0124 VRB04KT P6SM SCT050 OVC100
     FM010600 VRB03KT P6SM SCT150
      AMD LTD TO CLD AND WIND 0101/0110=

USA.gov is the U.S. government's official web portal to all federal, state and local government web resources and services.